Time;durP1;ratioP1;P1;durP2;ratioP2;P2;SDS_P1;SDS_P2;PMS_P1;PMS_P2;Temp;Humidity;BMP_temperature;BMP_pressure;BME280_temperature;BME280_humidity;BME280_pressure;Samples;Min_cycle;Max_cycle;Signal;HPM_P1;HPM_P2
2023/09/02 00:00:24;;;;;;;8.43;4.18;;;17.50;84.50;;;;;;4756689;30;20199;-91
2023/09/02 00:02:52;;;;;;;11.68;4.97;;;17.60;84.30;;;;;;4756250;30;20138;-89
2023/09/02 00:05:19;;;;;;;9.93;4.90;;;17.60;83.90;;;;;;4745167;30;20060;-89
2023/09/02 00:07:46;;;;;;;10.68;5.35;;;17.60;84.10;;;;;;4743534;30;20052;-90
2023/09/02 00:10:13;;;;;;;9.68;5.40;;;17.50;84.30;;;;;;4757854;30;20229;-91
2023/09/02 00:12:40;;;;;;;11.45;5.25;;;17.50;84.50;;;;;;4743254;30;20160;-89
2023/09/02 00:15:08;;;;;;;11.18;5.13;;;17.40;84.80;;;;;;4744500;30;20646;-88
2023/09/02 00:17:35;;;;;;;11.13;4.97;;;17.40;84.80;;;;;;4739465;30;20062;-88
2023/09/02 00:20:07;;;;;;;9.75;5.50;;;17.50;84.70;;;;;;4734224;30;20516;-92
2023/09/02 00:22:34;;;;;;;9.25;4.78;;;17.40;84.80;;;;;;4737852;30;20087;-90
2023/09/02 00:25:02;;;;;;;8.27;4.57;;;17.40;84.90;;;;;;4740161;30;20189;-90
2023/09/02 00:27:29;;;;;;;9.43;4.72;;;17.30;85.10;;;;;;4740209;30;20056;-89
2023/09/02 00:29:56;;;;;;;10.27;5.33;;;17.40;85.10;;;;;;4725336;30;20052;-89
2023/09/02 00:32:23;;;;;;;9.73;5.07;;;17.40;85.20;;;;;;4726126;30;20569;-89
2023/09/02 00:34:50;;;;;;;9.40;5.25;;;17.40;85.20;;;;;;4728708;30;20491;-90
2023/09/02 00:37:18;;;;;;;8.85;4.85;;;17.40;85.20;;;;;;4742961;30;20082;-90
2023/09/02 00:39:45;;;;;;;10.38;5.22;;;17.50;85.20;;;;;;4742077;30;20113;-89
2023/09/02 00:42:13;;;;;;;9.20;4.90;;;17.50;85.00;;;;;;4745755;30;20058;-91
2023/09/02 00:44:41;;;;;;;8.32;4.63;;;17.50;85.10;;;;;;4751620;30;20116;-90
2023/09/02 00:47:08;;;;;;;10.82;5.82;;;17.50;85.10;;;;;;4756498;30;20060;-90
2023/09/02 00:49:35;;;;;;;10.70;5.30;;;17.50;85.20;;;;;;4707770;30;20044;-90
2023/09/02 00:52:02;;;;;;;11.70;5.43;;;17.50;85.20;;;;;;4707903;30;20471;-90
2023/09/02 00:54:32;;;;;;;8.83;4.33;;;17.40;85.20;;;;;;4721740;30;20052;-88
2023/09/02 00:57:00;;;;;;;10.20;5.18;;;17.50;85.20;;;;;;4735822;30;20066;-89
2023/09/02 00:59:27;;;;;;;11.63;5.72;;;17.50;84.80;;;;;;4738460;30;20112;-92
2023/09/02 01:01:55;;;;;;;10.68;6.00;;;17.50;85.10;;;;;;4757608;30;20052;-91
2023/09/02 01:04:23;;;;;;;11.35;5.60;;;17.50;85.30;;;;;;4757267;30;20048;-91
2023/09/02 01:06:50;;;;;;;9.63;4.73;;;17.50;85.30;;;;;;4757430;30;20078;-91
2023/09/02 01:09:18;;;;;;;9.45;5.30;;;17.50;85.10;;;;;;4742416;30;20047;-91
2023/09/02 01:11:45;;;;;;;9.25;4.90;;;17.50;85.20;;;;;;4756633;30;20087;-92
2023/09/02 01:14:14;;;;;;;10.40;4.90;;;17.50;85.10;;;;;;4742576;30;20055;-91
2023/09/02 01:16:41;;;;;;;9.00;5.07;;;17.50;85.10;;;;;;4742349;30;20043;-91
2023/09/02 01:19:12;;;;;;;9.33;5.13;;;17.50;85.20;;;;;;4742517;30;20143;-91
2023/09/02 01:21:57;;;;;;;9.80;5.15;;;17.50;85.20;;;;;;4742188;30;20056;-91
2023/09/02 01:24:37;;;;;;;11.10;5.30;;;17.50;85.30;;;;;;4756951;30;20135;-91
2023/09/02 01:27:28;;;;;;;9.65;5.03;;;17.50;85.30;;;;;;4739180;30;20454;-91
2023/09/02 01:30:07;;;;;;;9.45;5.40;;;17.50;85.20;;;;;;4741987;30;20052;-91
2023/09/02 01:32:39;;;;;;;9.00;5.67;;;17.50;85.30;;;;;;4757101;30;20051;-91
2023/09/02 01:35:08;;;;;;;9.80;5.60;;;17.50;85.30;;;;;;4756776;30;20090;-91
2023/09/02 01:37:42;;;;;;;9.18;5.10;;;17.50;85.40;;;;;;4756672;30;20048;-91
2023/09/02 01:40:12;;;;;;;10.00;4.90;;;17.50;85.30;;;;;;4756781;30;20154;-91
2023/09/02 01:42:41;;;;;;;9.80;5.18;;;17.60;85.10;;;;;;4756329;30;20063;-91
2023/09/02 01:45:10;;;;;;;9.43;5.40;;;17.60;85.10;;;;;;4742149;30;20507;-91
2023/09/02 01:47:38;;;;;;;11.73;5.65;;;17.60;85.10;;;;;;4741459;30;20054;-91
2023/09/02 01:50:09;;;;;;;11.02;5.65;;;17.60;85.00;;;;;;4756806;30;20051;-91
2023/09/02 01:52:36;;;;;;;10.68;5.22;;;17.60;85.00;;;;;;4741462;30;20062;-91
2023/09/02 01:55:04;;;;;;;11.40;6.05;;;17.60;85.00;;;;;;4741611;30;20514;-91
2023/09/02 01:57:32;;;;;;;11.80;6.13;;;17.70;84.90;;;;;;4756345;30;20086;-91
2023/09/02 02:00:00;;;;;;;10.77;6.35;;;17.80;84.60;;;;;;4755854;30;20570;-90
2023/09/02 02:02:27;;;;;;;9.98;5.43;;;17.70;84.90;;;;;;4756266;30;20079;-91
2023/09/02 02:04:59;;;;;;;10.32;6.22;;;17.70;85.00;;;;;;4741444;30;20563;-90
2023/09/02 02:07:33;;;;;;;9.80;5.60;;;17.70;84.90;;;;;;4741478;30;20206;-90
2023/09/02 02:10:03;;;;;;;8.77;4.80;;;17.70;84.90;;;;;;4756486;30;20500;-91
2023/09/02 02:12:31;;;;;;;10.45;5.88;;;17.80;84.80;;;;;;4756282;30;20535;-90
2023/09/02 02:14:58;;;;;;;9.52;6.07;;;17.80;84.70;;;;;;4756153;30;20052;-90
2023/09/02 02:17:25;;;;;;;9.20;5.20;;;17.70;85.00;;;;;;4755876;30;20125;-90
2023/09/02 02:19:52;;;;;;;8.43;4.53;;;17.70;84.80;;;;;;4741229;30;20055;-91
2023/09/02 02:22:20;;;;;;;7.27;3.80;;;17.70;84.60;;;;;;4740667;30;20056;-90
2023/09/02 02:24:47;;;;;;;8.10;4.20;;;17.70;84.50;;;;;;4741296;30;20062;-91
2023/09/02 02:27:14;;;;;;;8.75;4.63;;;17.80;84.30;;;;;;4755725;30;20074;-91
2023/09/02 02:29:40;;;;;;;9.65;4.47;;;17.80;84.50;;;;;;4740795;30;20507;-90
2023/09/02 02:32:07;;;;;;;7.47;4.45;;;17.80;84.60;;;;;;4756217;30;20142;-91
2023/09/02 02:34:35;;;;;;;8.57;4.97;;;17.80;84.60;;;;;;4755550;30;20059;-90
2023/09/02 02:37:02;;;;;;;10.68;4.70;;;17.90;84.50;;;;;;4740874;30;20048;-90
2023/09/02 02:39:29;;;;;;;8.45;4.40;;;17.90;84.50;;;;;;4755565;30;20183;-91
2023/09/02 02:41:57;;;;;;;7.82;4.10;;;17.90;84.60;;;;;;4755530;30;20083;-91
2023/09/02 02:44:25;;;;;;;9.88;4.20;;;17.90;84.60;;;;;;4741667;30;20051;-90
2023/09/02 02:46:52;;;;;;;9.27;4.37;;;17.80;84.70;;;;;;4755804;30;20058;-92
2023/09/02 02:49:19;;;;;;;8.20;4.30;;;17.80;84.70;;;;;;4740897;30;20062;-91
2023/09/02 02:51:46;;;;;;;8.80;4.57;;;17.90;84.80;;;;;;4755348;30;20090;-90
2023/09/02 02:54:14;;;;;;;9.48;4.32;;;18.00;84.60;;;;;;4755200;30;20529;-90
2023/09/02 02:56:41;;;;;;;8.05;4.05;;;18.00;84.50;;;;;;4740710;30;20052;-90
2023/09/02 02:59:09;;;;;;;8.03;3.97;;;18.00;84.50;;;;;;4740785;30;20072;-91
2023/09/02 03:01:36;;;;;;;10.23;3.92;;;18.10;84.30;;;;;;4740720;30;20056;-91
2023/09/02 03:04:03;;;;;;;9.27;4.40;;;18.10;83.90;;;;;;4755359;30;20048;-91
2023/09/02 03:06:31;;;;;;;8.73;4.65;;;18.10;84.10;;;;;;4740626;30;20063;-90
2023/09/02 03:08:58;;;;;;;7.43;4.38;;;18.10;84.30;;;;;;4755029;30;20055;-90
2023/09/02 03:11:25;;;;;;;8.53;4.40;;;18.10;84.60;;;;;;4740498;30;20048;-90
2023/09/02 03:13:54;;;;;;;6.68;3.67;;;18.00;84.80;;;;;;4740793;30;20059;-91
2023/09/02 03:16:24;;;;;;;7.07;4.30;;;18.10;84.50;;;;;;4755511;30;20058;-90
2023/09/02 03:18:53;;;;;;;7.68;4.03;;;18.10;84.20;;;;;;4741019;30;20047;-90
2023/09/02 03:21:20;;;;;;;7.50;4.13;;;18.10;84.10;;;;;;4755197;30;20507;-90
2023/09/02 03:23:47;;;;;;;7.63;4.20;;;18.20;84.10;;;;;;4740685;30;20052;-90
2023/09/02 03:26:17;;;;;;;8.57;4.43;;;18.20;84.10;;;;;;4755204;30;20139;-90
2023/09/02 03:28:47;;;;;;;7.53;4.00;;;18.30;84.10;;;;;;4754897;30;20056;-90
2023/09/02 03:31:16;;;;;;;7.20;4.32;;;18.30;84.10;;;;;;4740626;30;20060;-90
2023/09/02 03:33:44;;;;;;;7.68;4.13;;;18.30;84.00;;;;;;4740673;30;20048;-91
2023/09/02 03:36:20;;;;;;;8.70;5.10;;;18.30;84.00;;;;;;4758782;30;20043;-91
2023/09/02 03:38:47;;;;;;;8.20;4.22;;;18.30;84.30;;;;;;4758613;30;20575;-90
2023/09/02 03:41:17;;;;;;;8.32;5.07;;;18.30;84.20;;;;;;4744077;30;20043;-91
2023/09/02 03:43:45;;;;;;;8.30;4.72;;;18.30;84.10;;;;;;4758469;30;20058;-91
2023/09/02 03:46:13;;;;;;;9.02;4.88;;;18.30;84.10;;;;;;4744116;30;20087;-91
2023/09/02 03:48:41;;;;;;;12.43;6.13;;;18.30;84.00;;;;;;4759247;30;20062;-91
2023/09/02 03:51:12;;;;;;;10.15;5.30;;;18.30;84.10;;;;;;4743579;30;20085;-91
2023/09/02 03:53:44;;;;;;;10.30;6.78;;;18.30;84.30;;;;;;4744757;30;20425;-91
2023/09/02 03:56:14;;;;;;;10.70;5.70;;;18.30;84.30;;;;;;4744475;30;20044;-91
2023/09/02 03:58:41;;;;;;;10.20;5.55;;;18.30;84.30;;;;;;4758578;30;20063;-90
2023/09/02 04:01:09;;;;;;;10.40;5.33;;;18.40;84.20;;;;;;4758353;30;20062;-91
2023/09/02 04:03:36;;;;;;;11.63;7.03;;;18.40;84.10;;;;;;4743441;30;20147;-92
2023/09/02 04:06:07;;;;;;;10.95;7.32;;;18.30;84.20;;;;;;4758861;30;20052;-90
2023/09/02 04:08:34;;;;;;;11.20;7.57;;;18.40;84.10;;;;;;4743693;30;20070;-91
2023/09/02 04:11:02;;;;;;;16.17;9.43;;;18.40;84.00;;;;;;4758145;30;20047;-90
2023/09/02 04:13:30;;;;;;;15.53;7.50;;;18.30;84.40;;;;;;4757763;30;20048;-90
2023/09/02 04:16:05;;;;;;;14.48;7.72;;;18.30;84.60;;;;;;4758365;30;20081;-90
2023/09/02 04:18:33;;;;;;;15.30;7.63;;;18.30;84.70;;;;;;4743409;30;20075;-90
2023/09/02 04:21:02;;;;;;;16.88;7.75;;;18.30;84.70;;;;;;4743198;30;20048;-90
2023/09/02 04:23:32;;;;;;;13.85;7.28;;;18.30;84.70;;;;;;4757685;30;20060;-90
2023/09/02 04:26:06;;;;;;;22.67;8.53;;;18.30;84.90;;;;;;4757676;30;20124;-90
2023/09/02 04:28:33;;;;;;;14.77;8.07;;;18.30;84.80;;;;;;4757906;30;20055;-90
2023/09/02 04:31:02;;;;;;;13.52;8.75;;;18.30;84.60;;;;;;4757592;30;20111;-91
2023/09/02 04:33:31;;;;;;;14.57;8.23;;;18.40;84.70;;;;;;4758071;30;20147;-90
2023/09/02 04:36:00;;;;;;;12.25;8.60;;;18.40;84.60;;;;;;4743424;30;20058;-90
2023/09/02 04:38:30;;;;;;;12.60;7.80;;;18.40;84.50;;;;;;4757511;30;20082;-91
2023/09/02 04:41:03;;;;;;;12.38;7.85;;;18.50;84.30;;;;;;4757494;30;20052;-92
2023/09/02 04:43:30;;;;;;;12.30;8.30;;;18.50;84.00;;;;;;4757462;30;20052;-91
2023/09/02 04:46:04;;;;;;;11.93;6.90;;;18.50;84.00;;;;;;4742348;30;20075;-91
2023/09/02 04:48:36;;;;;;;10.00;5.80;;;18.50;84.10;;;;;;4757361;30;20052;-91
2023/09/02 04:51:07;;;;;;;9.47;4.97;;;18.50;84.10;;;;;;4743447;30;20055;-91
2023/09/02 04:53:36;;;;;;;6.88;2.88;;;18.50;83.70;;;;;;4757256;30;20067;-91
2023/09/02 04:56:08;;;;;;;7.07;2.88;;;18.50;82.60;;;;;;4757143;30;20071;-91
2023/09/02 04:58:36;;;;;;;5.63;3.00;;;18.50;82.80;;;;;;4757496;30;20055;-91
2023/09/02 05:01:11;;;;;;;9.27;2.67;;;18.50;82.50;;;;;;4757540;30;20059;-90
2023/09/02 05:03:52;;;;;;;5.17;2.30;;;18.60;82.40;;;;;;4744208;30;20079;-90
2023/09/02 05:06:19;;;;;;;6.40;3.40;;;18.60;82.30;;;;;;4757134;30;20074;-91
2023/09/02 05:08:53;;;;;;;5.35;2.88;;;18.60;82.20;;;;;;4757494;30;20114;-91
2023/09/02 05:11:22;;;;;;;6.25;2.63;;;18.60;82.50;;;;;;4757631;30;20068;-91
2023/09/02 05:13:49;;;;;;;5.65;3.03;;;18.70;82.10;;;;;;4727326;30;20073;-90
2023/09/02 05:16:16;;;;;;;4.97;2.60;;;18.80;82.10;;;;;;4739450;30;20052;-90
2023/09/02 05:18:43;;;;;;;5.43;2.15;;;18.80;82.40;;;;;;4739197;30;20052;-90
2023/09/02 05:21:10;;;;;;;6.95;2.38;;;18.80;81.20;;;;;;4739275;30;20599;-90
2023/09/02 05:23:37;;;;;;;5.03;2.33;;;19.00;81.20;;;;;;4724833;30;20048;-89
2023/09/02 05:26:04;;;;;;;5.95;2.13;;;19.00;81.40;;;;;;4739146;30;20147;-90
2023/09/02 05:28:32;;;;;;;5.37;2.30;;;19.00;80.60;;;;;;4739355;30;20077;-90
2023/09/02 05:30:59;;;;;;;7.63;2.28;;;19.10;80.80;;;;;;4739045;30;20083;-91
2023/09/02 05:33:26;;;;;;;6.22;2.40;;;19.10;80.90;;;;;;4738795;30;20058;-90
2023/09/02 05:35:54;;;;;;;5.68;2.13;;;19.20;80.80;;;;;;4724412;30;20503;-89
2023/09/02 05:38:21;;;;;;;10.88;2.33;;;19.30;80.70;;;;;;4724352;30;20075;-90
2023/09/02 05:40:48;;;;;;;5.57;1.90;;;19.40;80.80;;;;;;4738738;30;20056;-90
2023/09/02 05:43:16;;;;;;;5.10;2.28;;;19.50;80.90;;;;;;4724410;30;20059;-91
2023/09/02 05:45:44;;;;;;;5.22;2.10;;;19.50;79.50;;;;;;4724087;30;20075;-91
2023/09/02 05:48:11;;;;;;;4.22;2.03;;;19.50;79.90;;;;;;4739115;30;20078;-91
2023/09/02 05:50:38;;;;;;;5.07;1.75;;;19.60;79.30;;;;;;4738413;30;20143;-91
2023/09/02 05:53:05;;;;;;;4.47;1.80;;;19.60;78.80;;;;;;4738622;30;20110;-90
2023/09/02 05:55:33;;;;;;;3.72;2.00;;;19.70;79.10;;;;;;4738502;30;20522;-90
2023/09/02 05:58:00;;;;;;;4.50;2.28;;;19.70;78.20;;;;;;4737540;30;20143;-91
2023/09/02 06:00:27;;;;;;;4.55;2.05;;;19.70;77.80;;;;;;4738371;30;20048;-90
2023/09/02 06:02:54;;;;;;;4.70;2.00;;;19.80;77.60;;;;;;4738525;30;20060;-91
2023/09/02 06:05:21;;;;;;;4.00;1.77;;;19.80;77.70;;;;;;4738496;30;20098;-91
2023/09/02 06:07:48;;;;;;;4.25;1.90;;;19.90;77.80;;;;;;4723892;30;20087;-90
2023/09/02 06:10:16;;;;;;;152.10;26.05;;;19.90;77.70;;;;;;4723859;30;20052;-90
2023/09/02 06:12:43;;;;;;;13.00;4.00;;;19.80;78.20;;;;;;4738468;30;20427;-91
2023/09/02 06:15:10;;;;;;;8.15;2.22;;;19.80;78.40;;;;;;4738154;30;20067;-91
2023/09/02 06:17:37;;;;;;;4.50;2.20;;;19.90;78.60;;;;;;4738303;30;20052;-90
2023/09/02 06:20:05;;;;;;;5.32;1.92;;;20.00;78.40;;;;;;4723447;30;20102;-88
2023/09/02 06:22:32;;;;;;;6.00;2.40;;;20.10;77.90;;;;;;4737295;30;20056;-88
2023/09/02 06:25:00;;;;;;;7.07;3.30;;;20.10;78.00;;;;;;4723111;30;20052;-88
2023/09/02 06:27:27;;;;;;;8.75;3.75;;;20.10;79.10;;;;;;4737452;30;20066;-88
2023/09/02 06:29:54;;;;;;;8.53;5.10;;;20.10;80.00;;;;;;4737428;30;20070;-88
2023/09/02 06:32:21;;;;;;;8.75;5.90;;;20.00;81.00;;;;;;4737512;30;20056;-88
2023/09/02 06:35:12;;;;;;;9.57;5.90;;;20.00;81.20;;;;;;4740922;30;20082;-92
2023/09/02 06:37:39;;;;;;;10.55;6.28;;;19.90;81.30;;;;;;4723721;30;20076;-91
2023/09/02 06:40:06;;;;;;;10.57;7.10;;;19.80;81.50;;;;;;4738141;30;20052;-91
2023/09/02 06:42:33;;;;;;;11.77;8.10;;;19.80;82.10;;;;;;4738310;30;20060;-93
2023/09/02 06:45:01;;;;;;;13.00;8.20;;;19.90;82.30;;;;;;4723326;30;20150;-91
2023/09/02 06:47:28;;;;;;;13.45;9.13;;;19.90;81.60;;;;;;4738138;30;20455;-91
2023/09/02 06:49:55;;;;;;;14.15;10.65;;;19.90;81.70;;;;;;4739225;30;20052;-90
2023/09/02 06:52:22;;;;;;;15.80;10.40;;;19.80;82.20;;;;;;4723385;30;20058;-92
2023/09/02 06:54:49;;;;;;;11.73;8.63;;;19.90;82.40;;;;;;4737671;30;20045;-92
2023/09/02 06:57:16;;;;;;;11.55;7.63;;;20.00;81.80;;;;;;4737740;30;20495;-91
2023/09/02 06:59:43;;;;;;;14.95;8.80;;;20.10;80.70;;;;;;4723969;30;20062;-92
2023/09/02 07:02:10;;;;;;;14.75;8.73;;;20.30;80.00;;;;;;4737845;30;20048;-90
2023/09/02 07:04:38;;;;;;;11.40;8.10;;;20.40;80.00;;;;;;4723210;30;20389;-92
2023/09/02 07:07:05;;;;;;;10.13;7.43;;;20.50;79.80;;;;;;4737883;30;20087;-92
2023/09/02 07:09:32;;;;;;;8.10;4.60;;;20.50;79.30;;;;;;4722844;30;20059;-89
2023/09/02 07:11:59;;;;;;;8.95;5.97;;;20.50;78.50;;;;;;4739104;30;20154;-87
2023/09/02 07:14:26;;;;;;;7.70;4.82;;;20.60;78.90;;;;;;4739987;30;20059;-87
2023/09/02 07:16:53;;;;;;;8.05;5.30;;;20.80;78.70;;;;;;4739974;30;20058;-87
2023/09/02 07:19:20;;;;;;;8.57;5.53;;;20.80;77.70;;;;;;4739921;30;20048;-87
2023/09/02 07:21:47;;;;;;;9.13;5.85;;;20.90;78.20;;;;;;4754542;30;20056;-87
2023/09/02 07:24:14;;;;;;;10.30;6.07;;;21.00;77.80;;;;;;4740473;30;20129;-89
2023/09/02 07:26:41;;;;;;;10.15;6.60;;;20.90;78.30;;;;;;4747454;30;20132;-88
2023/09/02 07:29:08;;;;;;;11.48;6.45;;;20.90;78.20;;;;;;4754824;30;20048;-89
2023/09/02 07:31:35;;;;;;;10.53;6.20;;;20.80;78.10;;;;;;4740095;30;20047;-88
2023/09/02 07:34:03;;;;;;;12.05;6.28;;;20.80;77.40;;;;;;4754985;30;20051;-89
2023/09/02 07:36:30;;;;;;;10.35;5.35;;;20.60;77.80;;;;;;4740275;30;20499;-88
2023/09/02 07:38:57;;;;;;;8.00;4.88;;;20.60;78.10;;;;;;4740174;30;20050;-88
2023/09/02 07:41:24;;;;;;;10.65;5.38;;;20.60;79.30;;;;;;4754714;30;20055;-89
2023/09/02 07:43:51;;;;;;;8.10;4.73;;;20.80;78.90;;;;;;4740082;30;20048;-88
2023/09/02 07:46:18;;;;;;;10.00;4.30;;;20.80;77.90;;;;;;4754728;30;20059;-89
2023/09/02 07:48:48;;;;;;;9.00;3.80;;;20.80;78.20;;;;;;4740013;30;20105;-88
2023/09/02 07:51:17;;;;;;;7.97;3.70;;;20.90;77.70;;;;;;4754655;30;20079;-91
2023/09/02 07:53:45;;;;;;;7.40;3.47;;;21.10;77.10;;;;;;4740140;30;20499;-89
2023/09/02 07:56:12;;;;;;;7.80;4.00;;;21.10;76.80;;;;;;4754729;30;20139;-88
2023/09/02 07:58:42;;;;;;;6.60;3.55;;;21.20;76.40;;;;;;4739906;30;20102;-89
2023/09/02 08:01:09;;;;;;;8.40;4.70;;;21.30;76.90;;;;;;4754680;30;20060;-89
2023/09/02 08:03:36;;;;;;;9.55;4.57;;;21.40;76.60;;;;;;4754773;30;20537;-90
2023/09/02 08:06:08;;;;;;;8.02;3.60;;;21.50;76.70;;;;;;4740066;30;20056;-89
2023/09/02 08:08:36;;;;;;;7.43;3.30;;;21.30;76.00;;;;;;4740282;30;20058;-89
2023/09/02 08:11:04;;;;;;;8.15;3.97;;;21.30;74.60;;;;;;4739797;30;20055;-89
2023/09/02 08:13:32;;;;;;;6.40;4.10;;;21.30;76.00;;;;;;4739976;30;20142;-89
2023/09/02 08:16:03;;;;;;;7.60;4.22;;;21.30;75.80;;;;;;4740002;30;20047;-88
2023/09/02 08:18:30;;;;;;;8.68;4.05;;;21.40;75.80;;;;;;4754432;30;20055;-89
2023/09/02 08:20:57;;;;;;;7.97;3.47;;;21.30;75.40;;;;;;4741244;30;20047;-89
2023/09/02 08:23:24;;;;;;;6.88;3.58;;;21.40;75.50;;;;;;4757574;30;20150;-89
2023/09/02 08:25:51;;;;;;;8.38;3.95;;;21.30;75.00;;;;;;4757370;30;20056;-89
2023/09/02 08:28:18;;;;;;;8.15;3.58;;;21.30;74.00;;;;;;4742797;30;20062;-89
2023/09/02 08:30:45;;;;;;;6.28;3.08;;;21.30;74.00;;;;;;4757406;30;20097;-89
2023/09/02 08:33:12;;;;;;;6.30;3.20;;;21.30;73.40;;;;;;4742688;30;20503;-90
2023/09/02 08:35:39;;;;;;;5.28;2.60;;;21.30;73.80;;;;;;4742999;30;20055;-88
2023/09/02 08:38:06;;;;;;;5.85;2.88;;;21.40;72.20;;;;;;4757527;30;20481;-90
2023/09/02 08:40:33;;;;;;;8.35;2.72;;;21.30;71.70;;;;;;4743014;30;20051;-89
2023/09/02 08:43:03;;;;;;;6.43;3.00;;;21.30;72.60;;;;;;4757326;30;20123;-89
2023/09/02 08:45:33;;;;;;;5.20;2.53;;;21.40;74.20;;;;;;4743001;30;20071;-89
2023/09/02 08:48:02;;;;;;;4.90;2.50;;;21.50;72.80;;;;;;4739738;30;20109;-90
2023/09/02 08:50:29;;;;;;;5.93;2.72;;;21.50;72.80;;;;;;4756757;30;20090;-89
2023/09/02 08:52:57;;;;;;;6.57;3.05;;;21.40;72.00;;;;;;4742605;30;20556;-89
2023/09/02 08:55:27;;;;;;;5.82;3.20;;;21.50;72.50;;;;;;4742546;30;20568;-89
2023/09/02 08:57:55;;;;;;;4.90;3.00;;;21.60;73.40;;;;;;4744083;30;20052;-93
2023/09/02 09:00:22;;;;;;;5.45;2.63;;;21.70;72.60;;;;;;4758568;30;20075;-94
2023/09/02 09:02:50;;;;;;;6.57;2.80;;;21.90;72.60;;;;;;4760205;30;20091;-92
2023/09/02 09:09:19;;;;;;;5.68;3.38;;;21.80;72.20;;;;;;4775283;30;20042;-95
2023/09/02 09:11:47;;;;;;;5.70;2.90;;;21.70;72.20;;;;;;4743144;30;20051;-95
2023/09/02 09:14:25;;;;;;;5.75;2.92;;;21.80;72.90;;;;;;4759208;30;20507;-96
2023/09/02 09:16:55;;;;;;;6.18;3.10;;;22.10;72.90;;;;;;4760887;30;20056;-96
2023/09/02 09:19:23;;;;;;;7.13;2.80;;;22.20;71.90;;;;;;4757692;30;20142;-95
2023/09/02 09:21:50;;;;;;;5.32;2.90;;;22.30;69.60;;;;;;4742482;30;20052;-95
2023/09/02 09:24:20;;;;;;;4.87;2.83;;;22.30;71.10;;;;;;4743771;30;20154;-95
2023/09/02 09:26:52;;;;;;;6.43;3.13;;;22.10;70.80;;;;;;4748741;30;20147;-92
2023/09/02 09:29:22;;;;;;;7.82;4.13;;;22.10;70.90;;;;;;4756695;30;20048;-91
2023/09/02 09:31:49;;;;;;;7.47;3.38;;;22.00;70.70;;;;;;4756451;30;20052;-90
2023/09/02 09:34:16;;;;;;;5.25;3.17;;;21.70;71.60;;;;;;4742435;30;20051;-89
2023/09/02 09:36:44;;;;;;;4.90;2.40;;;21.50;72.10;;;;;;4756926;30;20051;-91
2023/09/02 09:39:11;;;;;;;6.90;2.85;;;21.50;71.80;;;;;;4756573;30;20087;-92
2023/09/02 09:41:46;;;;;;;5.78;2.65;;;21.50;72.40;;;;;;4741874;30;20150;-92
2023/09/02 09:44:15;;;;;;;8.98;2.45;;;21.60;72.60;;;;;;4741689;30;20047;-91
2023/09/02 09:46:52;;;;;;;4.20;2.20;;;21.70;72.00;;;;;;4741802;30;20098;-91
2023/09/02 09:49:24;;;;;;;4.23;2.10;;;21.80;72.70;;;;;;4756475;30;20056;-91
2023/09/02 09:52:00;;;;;;;5.57;2.40;;;21.80;72.80;;;;;;4756475;30;20451;-91
2023/09/02 09:54:50;;;;;;;5.43;2.40;;;21.70;71.70;;;;;;4756602;30;20497;-91
2023/09/02 09:57:30;;;;;;;6.03;2.47;;;21.80;72.20;;;;;;4756289;30;20055;-91
2023/09/02 09:59:57;;;;;;;5.63;2.88;;;22.10;71.60;;;;;;4741884;30;20048;-92
2023/09/02 10:02:24;;;;;;;5.63;2.60;;;22.30;70.30;;;;;;4756312;30;20062;-92
2023/09/02 10:04:56;;;;;;;4.40;2.20;;;22.60;69.10;;;;;;4741777;30;20051;-91
2023/09/02 10:07:25;;;;;;;4.40;2.50;;;22.70;68.50;;;;;;4756193;30;20059;-92
2023/09/02 10:09:56;;;;;;;6.65;3.47;;;22.90;69.20;;;;;;4741360;30;20067;-92
2023/09/02 10:12:24;;;;;;;4.97;2.60;;;23.10;69.30;;;;;;4741369;30;20496;-91
2023/09/02 10:14:51;;;;;;;5.33;2.47;;;23.10;67.80;;;;;;4741457;30;20059;-91
2023/09/02 10:17:18;;;;;;;5.18;2.60;;;23.10;66.90;;;;;;4756261;30;20051;-91
2023/09/02 10:19:46;;;;;;;7.57;3.10;;;23.20;66.90;;;;;;4755943;30;20404;-92
2023/09/02 10:22:18;;;;;;;5.78;2.90;;;23.10;66.50;;;;;;4741186;30;20055;-90
2023/09/02 10:25:19;;;;;;;8.82;5.15;;;23.10;67.80;;;;;;4755857;30;20055;-91
2023/09/02 10:27:55;;;;;;;9.03;5.50;;;22.90;68.80;;;;;;4752888;30;20055;-91
2023/09/02 10:30:30;;;;;;;9.18;6.05;;;22.50;69.50;;;;;;4741339;30;20059;-91
2023/09/02 10:33:11;;;;;;;9.25;5.90;;;22.30;69.90;;;;;;4755753;30;20051;-92
2023/09/02 10:35:45;;;;;;;8.98;5.78;;;22.30;70.40;;;;;;4755779;30;20058;-92
2023/09/02 10:38:17;;;;;;;9.93;6.25;;;22.20;70.10;;;;;;4755763;30;20052;-92
2023/09/02 10:40:49;;;;;;;9.00;6.03;;;22.10;70.50;;;;;;4741255;30;20048;-95
2023/09/02 10:43:17;;;;;;;10.32;6.07;;;22.20;71.10;;;;;;4755666;30;20179;-94
2023/09/02 10:45:49;;;;;;;8.68;5.68;;;22.20;70.70;;;;;;4764684;30;20091;-94
2023/09/02 10:52:45;;;;;;;9.57;5.80;;;22.20;71.50;;;;;;4777524;30;20046;-92
